Time;durP1;ratioP1;P1;durP2;ratioP2;P2;SDS_P1;SDS_P2;PMS_P1;PMS_P2;Temp;Humidity;BMP_temperature;BMP_pressure;BME280_temperature;BME280_humidity;BME280_pressure;Samples;Min_cycle;Max_cycle;Signal;HPM_P1;HPM_P2
2021/05/25 05:01:57;;;;;;;4.05;3.00;;;;;;;25.06;42.99;100967.95;1853457;77;22653;-66
2021/05/25 05:04:24;;;;;;;4.95;3.30;;;;;;;25.12;42.85;100969.16;1825608;77;20981;-66
2021/05/25 05:06:53;;;;;;;4.75;3.90;;;;;;;25.23;42.97;100968.38;1808459;77;21793;-66
2021/05/25 05:09:21;;;;;;;8.55;3.62;;;;;;;25.37;42.43;100966.95;1807198;78;21596;-65
2021/05/25 05:11:50;;;;;;;3.75;2.80;;;;;;;25.49;42.39;100966.18;1813321;77;20998;-65
2021/05/25 05:14:17;;;;;;;5.47;3.08;;;;;;;25.62;42.60;100969.71;1799581;78;20980;-65
2021/05/25 05:16:44;;;;;;;8.08;2.95;;;;;;;25.76;42.61;100966.47;1816882;78;20941;-65
2021/05/25 05:19:12;;;;;;;2.98;2.67;;;;;;;25.95;42.53;100962.20;1808635;77;22171;-68
2021/05/25 05:21:40;;;;;;;4.45;2.67;;;;;;;26.15;42.21;100962.23;1810982;77;22236;-70
2021/05/25 05:24:08;;;;;;;7.60;2.87;;;;;;;26.31;41.97;100959.29;1808204;77;21014;-70
2021/05/25 05:26:35;;;;;;;6.25;2.98;;;;;;;26.43;41.78;100956.10;1813776;77;21030;-67
2021/05/25 05:29:03;;;;;;;5.67;2.50;;;;;;;26.54;41.19;100953.11;1809234;77;20991;-71
2021/05/25 05:31:32;;;;;;;2.15;1.95;;;;;;;26.64;40.52;100953.45;1803072;77;20920;-68
2021/05/25 05:33:59;;;;;;;3.20;2.22;;;;;;;26.70;39.67;100952.78;1755242;81;21024;-65
2021/05/25 05:36:26;;;;;;;3.05;2.05;;;;;;;26.66;40.27;100947.44;1762961;81;20972;-65
2021/05/25 05:38:54;;;;;;;4.97;2.75;;;;;;;26.68;40.76;100952.11;1747488;81;21342;-68
2021/05/25 05:41:21;;;;;;;4.72;2.50;;;;;;;26.73;40.41;100949.77;1741243;81;21063;-66
2021/05/25 05:43:48;;;;;;;2.77;1.95;;;;;;;26.69;40.30;100946.59;1777596;79;21090;-66
2021/05/25 05:46:16;;;;;;;3.77;2.40;;;;;;;26.67;39.94;100944.59;1787319;79;20920;-66
2021/05/25 05:48:43;;;;;;;3.40;1.90;;;;;;;26.67;39.78;100938.42;1786429;79;21603;-67
2021/05/25 05:51:10;;;;;;;5.78;2.40;;;;;;;26.59;39.86;100940.59;1787017;79;20968;-67
2021/05/25 05:53:37;;;;;;;2.90;1.87;;;;;;;26.49;40.43;100943.42;1791602;78;20969;-66
2021/05/25 05:56:06;;;;;;;3.10;1.72;;;;;;;26.53;40.67;100941.25;1784719;79;20914;-65
2021/05/25 05:58:33;;;;;;;3.58;1.80;;;;;;;26.65;39.76;100945.77;1758630;80;21032;-66
2021/05/25 06:01:00;;;;;;;2.65;1.65;;;;;;;26.64;39.37;100948.10;1732227;81;21610;-66
2021/05/25 06:03:27;;;;;;;6.22;1.90;;;;;;;26.59;39.75;100947.27;1732537;82;21674;-66
2021/05/25 06:05:54;;;;;;;4.28;1.87;;;;;;;26.54;40.32;100941.09;1744825;81;20925;-66
2021/05/25 06:08:22;;;;;;;2.60;1.52;;;;;;;26.69;40.09;100945.77;1796072;79;21090;-65
2021/05/25 06:10:54;;;;;;;2.05;1.82;;;;;;;26.86;37.87;100942.05;1800278;79;20996;-66
2021/05/25 06:13:20;;;;;;;1.95;1.55;;;;;;;26.97;38.00;100941.73;1785125;79;20976;-65
2021/05/25 06:15:48;;;;;;;2.52;2.08;;;;;;;27.05;37.25;100932.36;1798825;79;21110;-67
2021/05/25 06:18:16;;;;;;;3.65;1.75;;;;;;;27.18;37.83;100936.68;1788133;79;21166;-68
2021/05/25 06:20:45;;;;;;;3.90;1.90;;;;;;;27.23;37.21;100936.97;1785242;78;21054;-68
2021/05/25 06:23:13;;;;;;;1.72;1.50;;;;;;;27.16;37.39;100937.35;1793646;79;20965;-67
2021/05/25 06:25:41;;;;;;;1.72;1.52;;;;;;;27.07;35.93;100927.68;1801769;79;21086;-69
2021/05/25 06:28:09;;;;;;;3.83;1.60;;;;;;;26.95;36.73;100927.67;1783306;79;21594;-69
2021/05/25 06:30:37;;;;;;;2.22;1.52;;;;;;;26.99;37.62;100917.50;1786939;79;20979;-67
2021/05/25 06:33:04;;;;;;;4.90;1.90;;;;;;;27.06;37.04;100915.31;1796458;79;21468;-69
2021/05/25 06:35:33;;;;;;;2.27;1.77;;;;;;;27.04;37.56;100910.64;1790715;79;20973;-69
2021/05/25 06:38:06;;;;;;;1.60;1.50;;;;;;;27.14;38.24;100910.45;1789998;79;20997;-72
2021/05/25 06:40:33;;;;;;;1.67;1.45;;;;;;;27.30;37.85;100906.86;1718015;79;21610;-65
2021/05/25 06:43:02;;;;;;;3.47;2.00;;;;;;;27.38;37.44;100909.52;1791606;79;21653;-76
2021/05/25 06:45:31;;;;;;;5.58;1.90;;;;;;;27.23;37.73;100905.38;1783593;79;21529;-66
2021/05/25 06:47:59;;;;;;;5.80;1.85;;;;;;;27.17;37.83;100912.28;1781951;79;21772;-65
2021/05/25 06:50:27;;;;;;;2.62;1.70;;;;;;;27.22;36.85;100914.41;1797344;79;21055;-67
2021/05/25 06:52:56;;;;;;;3.70;1.60;;;;;;;27.06;37.24;100906.46;1799210;79;20898;-63
2021/05/25 06:55:23;;;;;;;8.25;1.85;;;;;;;26.88;37.57;100904.80;1798979;79;20932;-64
2021/05/25 06:57:50;;;;;;;4.15;2.67;;;;;;;26.85;38.04;100905.64;1793139;79;21147;-64
2021/05/25 07:00:21;;;;;;;3.45;1.70;;;;;;;26.96;37.93;100905.81;1797016;78;20969;-67
2021/05/25 07:02:48;;;;;;;3.58;1.60;;;;;;;27.19;36.07;100904.89;1801545;78;21044;-65
2021/05/25 07:05:17;;;;;;;2.27;1.60;;;;;;;27.54;35.10;100907.60;1786207;79;21017;-64
2021/05/25 07:07:44;;;;;;;9.88;1.90;;;;;;;27.86;33.49;100900.42;1724555;82;20957;-65
2021/05/25 07:10:12;;;;;;;2.75;1.30;;;;;;;27.91;32.89;100895.38;1728375;82;21399;-66
2021/05/25 07:12:39;;;;;;;2.60;1.20;;;;;;;27.96;32.21;100898.35;1771892;79;21001;-65
2021/05/25 07:15:08;;;;;;;5.97;1.50;;;;;;;28.02;32.50;100888.74;1779288;79;20906;-68
2021/05/25 07:17:35;;;;;;;2.40;1.20;;;;;;;27.99;33.15;100891.81;1757784;80;21021;-65
2021/05/25 07:20:03;;;;;;;1.45;1.35;;;;;;;27.86;32.50;100887.87;1775353;79;20870;-67
2021/05/25 07:22:35;;;;;;;11.10;9.88;;;;;;;27.60;33.25;100890.02;1759164;80;21106;-64
2021/05/25 07:25:02;;;;;;;7.87;6.00;;;;;;;27.47;31.61;100898.61;1762219;79;21041;-66
2021/05/25 07:27:31;;;;;;;2.87;2.47;;;;;;;27.23;31.23;100884.82;1741813;79;21103;-66
2021/05/25 07:29:59;;;;;;;2.95;1.35;;;;;;;27.26;31.98;100886.31;1738695;80;21000;-65
2021/05/25 07:32:26;;;;;;;1.30;1.20;;;;;;;27.46;32.33;100878.22;1765648;79;20997;-66
2021/05/25 07:34:53;;;;;;;5.00;1.82;;;;;;;27.70;31.22;100867.89;1766837;79;22007;-66
2021/05/25 07:37:23;;;;;;;2.15;1.10;;;;;;;27.92;30.81;100871.61;1778749;79;20942;-66
2021/05/25 07:39:53;;;;;;;1.37;1.27;;;;;;;28.09;31.11;100862.42;1750496;79;21555;-65
2021/05/25 07:42:25;;;;;;;1.47;1.30;;;;;;;28.24;31.55;100863.84;1747363;79;20949;-65
2021/05/25 07:44:54;;;;;;;3.72;2.20;;;;;;;28.40;31.28;100865.02;1740172;82;21485;-65
2021/05/25 07:47:22;;;;;;;3.10;1.50;;;;;;;28.34;29.94;100871.13;1801909;79;21030;-65
2021/05/25 07:49:49;;;;;;;1.57;1.17;;;;;;;28.10;30.06;100867.27;1805214;79;21145;-65
2021/05/25 07:52:17;;;;;;;1.67;1.05;;;;;;;28.08;30.24;100871.97;1794914;78;20885;-68
2021/05/25 07:54:45;;;;;;;1.32;1.05;;;;;;;28.27;30.07;100863.48;1798236;79;21263;-69
2021/05/25 07:57:12;;;;;;;0.93;0.90;;;;;;;28.36;29.10;100870.44;1738193;81;21010;-67
2021/05/25 07:59:39;;;;;;;3.50;1.12;;;;;;;28.44;29.11;100864.98;1743902;80;21498;-67
2021/05/25 08:02:07;;;;;;;2.98;2.22;;;;;;;28.65;29.32;100865.62;1766823;79;21077;-66
2021/05/25 08:04:34;;;;;;;2.55;2.35;;;;;;;28.51;28.51;100860.56;1797868;77;21607;-68
2021/05/25 08:07:02;;;;;;;1.65;1.45;;;;;;;27.90;29.49;100868.27;1807657;78;21000;-73
2021/05/25 08:09:29;;;;;;;3.37;1.40;;;;;;;27.36;30.47;100869.56;1770179;78;21560;-68
2021/05/25 08:11:58;;;;;;;1.45;1.20;;;;;;;27.24;31.65;100876.30;1812729;78;20944;-70
2021/05/25 08:14:27;;;;;;;0.95;0.90;;;;;;;27.36;29.83;100894.97;1798477;77;20917;-68
2021/05/25 08:17:03;;;;;;;2.12;1.50;;;;;;;27.51;29.50;100882.53;1806576;78;21523;-72
2021/05/25 08:19:29;;;;;;;2.00;1.20;;;;;;;27.56;28.52;100886.03;1806676;78;20921;-67
2021/05/25 08:21:55;;;;;;;3.27;1.70;;;;;;;27.22;28.63;100886.33;1811690;78;21043;-66
2021/05/25 08:24:24;;;;;;;2.45;1.30;;;;;;;27.05;29.37;100889.59;1748036;81;21058;-70
2021/05/25 08:26:51;;;;;;;4.20;1.22;;;;;;;26.93;29.88;100884.23;1802386;78;21208;-65
2021/05/25 08:29:18;;;;;;;4.90;2.17;;;;;;;26.83;30.49;100883.09;1747067;81;20966;-70
2021/05/25 08:31:46;;;;;;;11.12;3.10;;;;;;;26.73;30.76;100881.13;1802749;77;21651;-68
2021/05/25 08:34:13;;;;;;;4.60;2.95;;;;;;;26.77;31.44;100889.14;1806798;78;21035;-67
2021/05/25 08:36:40;;;;;;;2.10;1.90;;;;;;;26.76;28.72;100883.97;1799516;78;21441;-70
2021/05/25 08:39:14;;;;;;;3.25;2.00;;;;;;;26.66;28.18;100884.65;1736682;82;21080;-66
2021/05/25 08:41:41;;;;;;;3.30;1.42;;;;;;;26.61;28.32;100878.98;1806560;78;21613;-69
2021/05/25 08:44:12;;;;;;;1.55;1.45;;;;;;;26.62;29.01;100877.97;1812364;78;21510;-71
2021/05/25 08:46:47;;;;;;;3.35;1.80;;;;;;;26.62;29.78;100884.66;1811468;78;21005;-71
2021/05/25 08:49:14;;;;;;;2.45;1.37;;;;;;;26.64;30.23;100884.81;1740684;82;21102;-72
2021/05/25 08:51:41;;;;;;;3.40;1.87;;;;;;;26.68;30.61;100876.80;1815571;78;20984;-73
2021/05/25 08:54:09;;;;;;;3.77;2.10;;;;;;;26.70;29.83;100880.64;1779238;78;20952;-71
2021/05/25 08:56:36;;;;;;;5.97;1.17;;;;;;;26.53;30.07;100874.47;1808810;78;20994;-73
2021/05/25 08:59:05;;;;;;;1.77;1.50;;;;;;;26.35;30.71;100873.84;1804625;78;21580;-71
2021/05/25 09:01:32;;;;;;;2.00;1.80;;;;;;;26.25;30.32;100861.45;1736096;81;21129;-65
2021/05/25 09:04:02;;;;;;;2.92;1.42;;;;;;;25.98;31.48;100859.12;1807284;77;21012;-66
2021/05/25 09:06:47;;;;;;;1.30;1.25;;;;;;;25.76;32.69;100863.26;1740854;81;20993;-67
2021/05/25 09:09:17;;;;;;;4.22;2.60;;;;;;;25.62;32.99;100854.52;1808178;77;20968;-67
2021/05/25 09:12:06;;;;;;;4.40;2.40;;;;;;;25.40;33.67;100851.98;1741127;81;20937;-68
2021/05/25 09:14:59;;;;;;;5.22;1.70;;;;;;;25.30;33.72;100857.10;1746006;80;21083;-67
2021/05/25 09:17:26;;;;;;;1.40;1.30;;;;;;;25.24;33.87;100864.74;1745181;80;21120;-67
2021/05/25 09:19:56;;;;;;;1.57;1.10;;;;;;;25.06;33.27;100856.52;1811580;78;21543;-69
2021/05/25 09:22:38;;;;;;;1.10;1.07;;;;;;;24.83;32.85;100844.20;1811947;78;21125;-67
2021/05/25 09:25:22;;;;;;;3.20;2.33;;;;;;;24.69;32.69;100842.98;1792058;77;20982;-69
2021/05/25 09:28:05;;;;;;;3.12;1.27;;;;;;;24.58;32.40;100836.09;1813353;78;21094;-71
2021/05/25 09:30:29;;;;;;;1.55;1.45;;;;;;;24.45;32.13;100836.99;1810073;78;20949;-68
2021/05/25 09:33:05;;;;;;;7.58;2.98;;;;;;;24.37;31.88;100836.95;1743987;81;20954;-66
2021/05/25 09:35:35;;;;;;;2.08;1.87;;;;;;;24.19;32.15;100833.45;1817253;78;20981;-69
2021/05/25 09:38:13;;;;;;;5.62;1.90;;;;;;;24.10;32.75;100833.87;1810870;78;21053;-67
2021/05/25 09:40:44;;;;;;;5.85;1.27;;;;;;;24.12;32.79;100828.40;1800694;78;21063;-69
2021/05/25 09:43:29;;;;;;;5.00;1.42;;;;;;;24.10;32.43;100825.89;1803066;78;20961;-67
2021/05/25 09:46:13;;;;;;;2.33;1.20;;;;;;;24.05;32.91;100825.52;1743150;81;21001;-68
2021/05/25 09:48:47;;;;;;;2.02;1.10;;;;;;;23.98;32.18;100817.83;1809316;78;21056;-67
2021/05/25 09:51:25;;;;;;;3.70;1.20;;;;;;;23.98;32.52;100811.67;1743793;81;21080;-65
2021/05/25 09:53:53;;;;;;;1.52;1.10;;;;;;;24.06;32.52;100805.90;1795355;78;21171;-68
2021/05/25 09:56:26;;;;;;;3.92;1.42;;;;;;;24.05;32.69;100806.05;1795898;77;20990;-66
2021/05/25 09:59:01;;;;;;;1.37;1.10;;;;;;;24.05;32.97;100796.74;1803955;78;21458;-65
2021/05/25 10:01:37;;;;;;;6.10;1.65;;;;;;;23.94;32.33;100792.52;1808313;78;21071;-66
2021/05/25 10:04:14;;;;;;;1.95;1.55;;;;;;;23.78;33.01;100779.08;1808862;78;21770;-65
2021/05/25 10:06:46;;;;;;;;;;;;;;;23.75;33.23;100783.37;1818920;79;21015;-64
2021/05/25 10:09:14;;;;;;;2.92;1.30;;;;;;;23.64;33.19;100781.77;1817008;79;20160;-65
2021/05/25 10:11:44;;;;;;;1.25;1.17;;;;;;;23.53;33.24;100786.84;1816853;78;21016;-66
2021/05/25 10:14:13;;;;;;;1.75;1.37;;;;;;;23.52;33.12;100788.29;1816867;78;20936;-66
2021/05/25 10:16:43;;;;;;;1.22;1.15;;;;;;;23.51;33.09;100790.61;1815538;78;21039;-66
2021/05/25 10:21:51;;;;;;;1.20;1.10;;;;;;;23.35;33.38;100791.27;1816794;78;20937;-64
2021/05/25 10:24:18;;;;;;;5.22;1.37;;;;;;;23.41;33.68;100778.70;1817265;78;21003;-65
2021/05/25 10:26:45;;;;;;;5.00;1.65;;;;;;;23.53;33.70;100783.34;1817165;78;20920;-67
2021/05/25 10:29:13;;;;;;;2.33;1.22;;;;;;;23.65;34.09;100776.80;1817193;78;20920;-67
2021/05/25 10:31:43;;;;;;;3.05;1.45;;;;;;;23.73;33.96;100780.86;1787914;79;21842;-65
2021/05/25 10:34:19;;;;;;;1.37;1.10;;;;;;;23.82;33.68;100785.27;1817289;79;21367;-66
2021/05/25 10:36:55;;;;;;;1.55;1.00;;;;;;;23.87;33.38;100786.14;1817181;79;20920;-66
2021/05/25 10:39:41;;;;;;;1.55;1.17;;;;;;;23.84;32.92;100782.45;1817297;79;21513;-66
2021/05/25 10:42:30;;;;;;;2.47;1.75;;;;;;;23.83;33.41;100790.09;1816961;78;21477;-65
2021/05/25 10:45:11;;;;;;;1.30;1.20;;;;;;;23.90;32.18;100791.16;1817169;79;21058;-66
2021/05/25 10:47:59;;;;;;;1.35;1.15;;;;;;;23.87;32.26;100789.64;1809907;79;21043;-67
2021/05/25 10:53:01;;;;;;;2.05;1.32;;;;;;;23.65;32.80;100790.09;1817124;78;20948;-67
2021/05/25 10:55:32;;;;;;;2.92;1.55;;;;;;;23.54;33.30;100781.03;1816980;79;21004;-66
2021/05/25 10:58:00;;;;;;;1.90;1.37;;;;;;;23.54;33.48;100781.87;1812963;78;21157;-66
2021/05/25 11:00:41;;;;;;;2.42;1.55;;;;;;;23.53;32.52;100772.72;1799344;78;21649;-66
2021/05/25 11:03:18;;;;;;;2.62;2.30;;;;;;;23.50;33.05;100766.34;1798447;78;20937;-65
2021/05/25 11:06:03;;;;;;;2.58;2.40;;;;;;;23.39;33.56;100760.74;1802962;79;20956;-66
2021/05/25 11:08:37;;;;;;;1.35;1.25;;;;;;;23.30;34.63;100764.30;1789880;78;21613;-64
2021/05/25 11:11:13;;;;;;;4.60;1.57;;;;;;;23.26;34.75;100754.46;1787847;79;21016;-65
2021/05/25 11:13:50;;;;;;;1.95;1.30;;;;;;;23.25;35.60;100759.43;1807212;79;20993;-65
2021/05/25 11:16:36;;;;;;;3.17;1.50;;;;;;;23.27;35.69;100753.97;1739908;82;21097;-65
2021/05/25 11:19:12;;;;;;;5.60;1.30;;;;;;;23.28;34.29;100739.20;1723981;81;21069;-65
2021/05/25 11:24:42;;;;;;;4.22;1.20;;;;;;;23.10;35.14;100750.32;1729875;82;21680;-68
2021/05/25 11:27:43;;;;;;;1.27;1.17;;;;;;;23.11;35.29;100747.17;1722355;81;21039;-67
2021/05/25 11:30:24;;;;;;;0.95;0.93;;;;;;;23.17;35.10;100745.25;1803731;79;20995;-66
2021/05/25 11:32:55;;;;;;;4.42;1.37;;;;;;;23.12;35.26;100745.70;1804493;79;21065;-68
2021/05/25 11:35:26;;;;;;;5.50;1.45;;;;;;;23.13;34.95;100741.22;1739075;82;20986;-66
2021/05/25 11:37:59;;;;;;;1.37;1.20;;;;;;;23.14;35.63;100745.05;1763780;80;21169;-66
2021/05/25 11:40:32;;;;;;;1.87;1.07;;;;;;;23.23;34.97;100745.45;1756835;80;20982;-69
2021/05/25 11:43:01;;;;;;;2.83;1.07;;;;;;;23.36;34.46;100742.93;1736440;82;21709;-66
2021/05/25 11:45:29;;;;;;;3.87;1.20;;;;;;;23.43;34.14;100740.02;1757508;79;21072;-67
2021/05/25 11:48:02;;;;;;;1.55;1.22;;;;;;;23.51;34.59;100740.94;1771868;79;21020;-66
2021/05/25 11:50:43;;;;;;;1.42;1.32;;;;;;;23.64;34.83;100735.23;1756648;80;21042;-67
2021/05/25 11:53:11;;;;;;;3.25;1.57;;;;;;;23.71;34.83;100740.29;1741176;81;21002;-66
2021/05/25 11:55:43;;;;;;;6.87;1.70;;;;;;;23.72;34.66;100736.64;1692934;82;21000;-66
2021/05/25 11:58:11;;;;;;;2.10;1.37;;;;;;;23.71;35.72;100748.27;1742674;81;20992;-66
2021/05/25 12:00:38;;;;;;;2.98;1.30;;;;;;;23.71;35.17;100738.96;1734770;81;21001;-67
2021/05/25 12:03:09;;;;;;;4.53;1.50;;;;;;;23.70;34.72;100739.11;1722671;82;21241;-66
2021/05/25 12:05:37;;;;;;;0.98;0.98;;;;;;;23.70;35.31;100737.29;1733426;82;20933;-68
2021/05/25 12:08:12;;;;;;;1.98;1.12;;;;;;;23.73;34.76;100740.97;1718077;82;20925;-65
2021/05/25 12:10:44;;;;;;;1.05;1.05;;;;;;;23.72;34.57;100735.31;1718889;82;28572;-66
2021/05/25 12:13:14;;;;;;;1.20;1.10;;;;;;;23.72;35.10;100731.33;1716805;82;21017;-65
2021/05/25 12:15:47;;;;;;;5.22;1.62;;;;;;;23.72;34.76;100730.48;1716276;82;21057;-67
2021/05/25 12:18:16;;;;;;;3.12;1.62;;;;;;;23.68;35.11;100721.98;1706452;82;21041;-65
2021/05/25 12:20:51;;;;;;;1.55;1.45;;;;;;;23.60;33.71;100725.89;1716929;82;20960;-66
2021/05/25 12:23:28;;;;;;;3.95;2.50;;;;;;;23.39;34.37;100720.88;1734228;82;21562;-67
2021/05/25 12:25:57;;;;;;;5.75;2.33;;;;;;;23.20;34.93;100719.19;1716975;82;21012;-68
2021/05/25 12:28:32;;;;;;;1.98;1.72;;;;;;;23.03;34.90;100718.70;1731009;82;21354;-66
2021/05/25 12:31:01;;;;;;;1.53;1.37;;;;;;;22.93;35.52;100720.56;1692130;83;21025;-69
2021/05/25 12:33:34;;;;;;;4.05;1.45;;;;;;;22.88;35.57;100721.01;1732612;79;21556;-69
2021/05/25 12:36:30;;;;;;;2.75;1.12;;;;;;;22.85;35.04;100716.48;1780788;79;20980;-65
2021/05/25 12:39:09;;;;;;;2.27;1.50;;;;;;;22.83;36.20;100710.48;1782344;79;20943;-65
2021/05/25 12:41:46;;;;;;;1.30;1.20;;;;;;;22.86;36.76;100705.71;1778270;79;20992;-65
2021/05/25 12:44:16;;;;;;;3.22;1.35;;;;;;;22.90;35.92;100694.30;1706479;83;20947;-68
2021/05/25 12:47:06;;;;;;;3.22;0.82;;;;;;;22.89;35.74;100693.47;1714024;83;20998;-66
2021/05/25 12:49:46;;;;;;;2.33;1.37;;;;;;;22.85;35.89;100684.13;1771202;79;21548;-67
2021/05/25 12:52:31;;;;;;;1.50;1.07;;;;;;;22.82;35.45;100686.23;1774777;79;21565;-67
2021/05/25 12:55:11;;;;;;;4.28;1.20;;;;;;;22.73;35.45;100685.30;1785707;79;20964;-66
2021/05/25 12:57:48;;;;;;;1.67;1.00;;;;;;;22.63;35.82;100693.31;1785135;79;21294;-66
2021/05/25 13:00:28;;;;;;;2.85;1.20;;;;;;;22.54;36.05;100683.58;1779998;79;20984;-68
2021/05/25 13:02:58;;;;;;;2.30;1.20;;;;;;;22.49;36.18;100679.20;1790921;79;21684;-66
2021/05/25 13:05:33;;;;;;;1.85;1.12;;;;;;;22.41;36.55;100673.78;1795482;78;21066;-68
2021/05/25 13:08:04;;;;;;;1.45;1.02;;;;;;;22.36;37.21;100670.76;1798145;78;21056;-66
2021/05/25 13:10:47;;;;;;;1.67;1.12;;;;;;;22.31;36.84;100671.69;1731927;82;21588;-67
2021/05/25 13:13:25;;;;;;;2.52;1.15;;;;;;;22.25;37.37;100679.73;1754451;81;21134;-67
2021/05/25 13:15:57;;;;;;;1.07;0.90;;;;;;;22.25;37.25;100673.10;1731676;82;22180;-68
2021/05/25 13:18:46;;;;;;;1.02;1.00;;;;;;;22.25;37.14;100667.80;1745277;81;22258;-65
2021/05/25 13:21:22;;;;;;;1.62;1.10;;;;;;;22.23;37.32;100667.10;1739679;81;21295;-67
2021/05/25 13:24:03;;;;;;;2.42;1.00;;;;;;;22.23;37.51;100653.84;1742560;81;21805;-66
2021/05/25 13:26:41;;;;;;;4.03;1.07;;;;;;;22.26;36.49;100655.37;1755813;81;21012;-66
2021/05/25 13:29:18;;;;;;;1.52;1.10;;;;;;;22.23;36.55;100648.53;1744859;81;20984;-66
2021/05/25 13:31:48;;;;;;;4.42;1.10;;;;;;;22.24;36.81;100644.06;1809180;79;21561;-66
2021/05/25 13:34:18;;;;;;;1.90;1.00;;;;;;;22.24;36.71;100642.25;1809208;79;21094;-67
2021/05/25 13:36:46;;;;;;;5.78;1.50;;;;;;;22.24;37.22;100632.96;1799856;79;21001;-65
2021/05/25 13:39:15;;;;;;;2.05;1.07;;;;;;;22.26;37.81;100628.84;1791895;79;21036;-67
2021/05/25 13:41:43;;;;;;;1.30;0.98;;;;;;;22.29;37.02;100624.08;1801600;79;20976;-67
2021/05/25 13:44:12;;;;;;;4.47;1.30;;;;;;;22.29;36.59;100625.40;1807441;79;21574;-65
2021/05/25 13:46:40;;;;;;;3.22;1.00;;;;;;;22.28;36.86;100629.52;1793648;79;21853;-63
2021/05/25 13:49:07;;;;;;;1.90;0.90;;;;;;;22.27;37.29;100631.34;1722521;82;22162;-64
2021/05/25 13:51:35;;;;;;;5.40;1.57;;;;;;;22.31;37.62;100623.93;1803078;79;20945;-65
2021/05/25 13:54:04;;;;;;;3.22;1.27;;;;;;;22.36;37.95;100630.96;1737769;82;20948;-69
2021/05/25 13:56:36;;;;;;;1.42;0.90;;;;;;;22.41;37.78;100618.05;1803939;78;21498;-68
2021/05/25 13:59:06;;;;;;;4.05;1.10;;;;;;;22.45;36.65;100615.45;1794810;79;21038;-65
